sensor_id;sensor_type;location;lat;lon;timestamp;pressure;altitude;pressure_sealevel;temperature;humidity
61474;BME280;53694;49.784;30.150;2024-01-15T00:00:48;98148.69;;;0.46;69.39
61474;BME280;53694;49.784;30.150;2024-01-15T00:01:52;98140.48;;;0.76;68.23
61474;BME280;53694;49.784;30.150;2024-01-15T00:02:53;98144.64;;;1.07;67.23
61474;BME280;53694;49.784;30.150;2024-01-15T00:03:55;98151.20;;;1.30;66.50
61474;BME280;53694;49.784;30.150;2024-01-15T00:04:57;98148.28;;;1.35;65.57
61474;BME280;53694;49.784;30.150;2024-01-15T00:05:58;98147.16;;;1.24;65.45
61474;BME280;53694;49.784;30.150;2024-01-15T00:07:00;98149.36;;;1.10;65.93
61474;BME280;53694;49.784;30.150;2024-01-15T00:08:01;98155.64;;;0.89;66.09
61474;BME280;53694;49.784;30.150;2024-01-15T00:09:03;98160.60;;;0.66;66.70
61474;BME280;53694;49.784;30.150;2024-01-15T00:10:05;98154.30;;;0.41;67.34
61474;BME280;53694;49.784;30.150;2024-01-15T00:11:07;98146.53;;;0.19;68.06
61474;BME280;53694;49.784;30.150;2024-01-15T00:12:08;98156.52;;;-0.03;68.83
61474;BME280;53694;49.784;30.150;2024-01-15T00:13:10;98153.45;;;-0.22;69.61
61474;BME280;53694;49.784;30.150;2024-01-15T00:14:11;98160.50;;;-0.38;70.28
61474;BME280;53694;49.784;30.150;2024-01-15T00:15:13;98147.59;;;-0.54;70.78
61474;BME280;53694;49.784;30.150;2024-01-15T00:16:15;98147.63;;;-0.62;71.34
61474;BME280;53694;49.784;30.150;2024-01-15T00:17:17;98155.56;;;-0.66;71.70
61474;BME280;53694;49.784;30.150;2024-01-15T00:18:19;98166.80;;;-0.55;71.63
61474;BME280;53694;49.784;30.150;2024-01-15T00:19:22;98154.95;;;-0.33;71.11
61474;BME280;53694;49.784;30.150;2024-01-15T00:20:25;98148.42;;;-0.03;70.48
61474;BME280;53694;49.784;30.150;2024-01-15T00:21:26;98148.66;;;0.34;69.55
61474;BME280;53694;49.784;30.150;2024-01-15T00:22:28;98156.91;;;0.71;68.27
61474;BME280;53694;49.784;30.150;2024-01-15T00:23:30;98160.27;;;1.01;67.15
61474;BME280;53694;49.784;30.150;2024-01-15T00:24:31;98161.46;;;1.24;66.08
61474;BME280;53694;49.784;30.150;2024-01-15T00:25:35;98151.88;;;1.27;65.25
61474;BME280;53694;49.784;30.150;2024-01-15T00:26:36;98153.77;;;1.14;65.14
61474;BME280;53694;49.784;30.150;2024-01-15T00:27:38;98169.38;;;0.96;65.43
61474;BME280;53694;49.784;30.150;2024-01-15T00:28:39;98158.61;;;0.75;66.12
61474;BME280;53694;49.784;30.150;2024-01-15T00:29:41;98158.63;;;0.55;66.64
61474;BME280;53694;49.784;30.150;2024-01-15T00:30:43;98152.00;;;0.31;67.20
61474;BME280;53694;49.784;30.150;2024-01-15T00:31:44;98147.72;;;0.09;67.93
61474;BME280;53694;49.784;30.150;2024-01-15T00:32:46;98147.69;;;-0.12;68.69
61474;BME280;53694;49.784;30.150;2024-01-15T00:33:47;98146.52;;;-0.32;69.37
61474;BME280;53694;49.784;30.150;2024-01-15T00:34:49;98146.28;;;-0.47;70.04
61474;BME280;53694;49.784;30.150;2024-01-15T00:35:51;98145.72;;;-0.62;70.63
61474;BME280;53694;49.784;30.150;2024-01-15T00:36:52;98141.00;;;-0.73;71.21
61474;BME280;53694;49.784;30.150;2024-01-15T00:37:54;98145.14;;;-0.76;71.64
61474;BME280;53694;49.784;30.150;2024-01-15T00:38:55;98133.02;;;-0.61;71.75
61474;BME280;53694;49.784;30.150;2024-01-15T00:39:57;98149.55;;;-0.33;71.28
61474;BME280;53694;49.784;30.150;2024-01-15T00:40:59;98132.68;;;-0.01;70.15
61474;BME280;53694;49.784;30.150;2024-01-15T00:42:00;98141.64;;;0.33;69.14
61474;BME280;53694;49.784;30.150;2024-01-15T00:43:02;98132.01;;;0.65;67.81
61474;BME280;53694;49.784;30.150;2024-01-15T00:44:03;98134.23;;;0.96;66.97
61474;BME280;53694;49.784;30.150;2024-01-15T00:45:05;98138.80;;;1.17;65.71
61474;BME280;53694;49.784;30.150;2024-01-15T00:46:07;98134.64;;;1.19;65.09
61474;BME280;53694;49.784;30.150;2024-01-15T00:47:09;98129.99;;;1.08;65.21
61474;BME280;53694;49.784;30.150;2024-01-15T00:48:11;98133.80;;;0.94;65.64
61474;BME280;53694;49.784;30.150;2024-01-15T00:49:13;98134.63;;;0.74;65.88
61474;BME280;53694;49.784;30.150;2024-01-15T00:50:14;98127.99;;;0.50;66.37
61474;BME280;53694;49.784;30.150;2024-01-15T00:51:16;98124.08;;;0.27;67.05
61474;BME280;53694;49.784;30.150;2024-01-15T00:52:18;98118.20;;;0.04;67.75
61474;BME280;53694;49.784;30.150;2024-01-15T00:53:19;98119.78;;;-0.16;68.57
61474;BME280;53694;49.784;30.150;2024-01-15T00:54:21;98122.58;;;-0.33;69.10
61474;BME280;53694;49.784;30.150;2024-01-15T00:55:24;98118.52;;;-0.48;69.71
61474;BME280;53694;49.784;30.150;2024-01-15T00:56:26;98122.57;;;-0.63;70.41
61474;BME280;53694;49.784;30.150;2024-01-15T00:57:27;98114.38;;;-0.75;70.84
61474;BME280;53694;49.784;30.150;2024-01-15T00:58:29;98117.41;;;-0.85;71.33
61474;BME280;53694;49.784;30.150;2024-01-15T00:59:30;98129.31;;;-0.86;71.69
61474;BME280;53694;49.784;30.150;2024-01-15T01:00:32;98117.52;;;-0.73;71.60
61474;BME280;53694;49.784;30.150;2024-01-15T01:01:33;98123.12;;;-0.48;71.13
61474;BME280;53694;49.784;30.150;2024-01-15T01:02:35;98123.27;;;-0.15;70.29
61474;BME280;53694;49.784;30.150;2024-01-15T01:03:37;98115.70;;;0.20;69.16
61474;BME280;53694;49.784;30.150;2024-01-15T01:04:38;98123.98;;;0.57;68.48
61474;BME280;53694;49.784;30.150;2024-01-15T01:05:40;98115.09;;;0.89;67.15
61474;BME280;53694;49.784;30.150;2024-01-15T01:06:41;98124.59;;;1.08;65.31
61474;BME280;53694;49.784;30.150;2024-01-15T01:07:43;98118.30;;;1.16;65.46
61474;BME280;53694;49.784;30.150;2024-01-15T01:08:44;98121.09;;;1.07;64.64
61474;BME280;53694;49.784;30.150;2024-01-15T01:09:46;98103.03;;;0.87;64.98
61474;BME280;53694;49.784;30.150;2024-01-15T01:10:48;98118.84;;;0.64;65.57
61474;BME280;53694;49.784;30.150;2024-01-15T01:11:49;98107.94;;;0.39;66.27
61474;BME280;53694;49.784;30.150;2024-01-15T01:12:51;98107.81;;;0.15;67.02
61474;BME280;53694;49.784;30.150;2024-01-15T01:13:52;98117.02;;;-0.07;67.71
61474;BME280;53694;49.784;30.150;2024-01-15T01:14:54;98100.80;;;-0.28;68.35
61474;BME280;53694;49.784;30.150;2024-01-15T01:15:55;98100.12;;;-0.46;69.02
61474;BME280;53694;49.784;30.150;2024-01-15T01:16:57;98103.70;;;-0.63;69.59
61474;BME280;53694;49.784;30.150;2024-01-15T01:17:58;98092.33;;;-0.77;70.19
61474;BME280;53694;49.784;30.150;2024-01-15T01:19:00;98101.42;;;-0.90;70.80
61474;BME280;53694;49.784;30.150;2024-01-15T01:20:02;98104.78;;;-1.02;71.17
61474;BME280;53694;49.784;30.150;2024-01-15T01:21:04;98106.23;;;-1.05;71.62
61474;BME280;53694;49.784;30.150;2024-01-15T01:22:05;98103.66;;;-0.92;71.58
61474;BME280;53694;49.784;30.150;2024-01-15T01:23:07;98111.97;;;-0.68;71.07
61474;BME280;53694;49.784;30.150;2024-01-15T01:24:09;98099.40;;;-0.34;70.27
61474;BME280;53694;49.784;30.150;2024-01-15T01:25:10;98110.30;;;-0.01;68.93
61474;BME280;53694;49.784;30.150;2024-01-15T01:26:17;98112.63;;;0.30;67.78
61474;BME280;53694;49.784;30.150;2024-01-15T01:27:19;98113.31;;;0.60;66.57
61474;BME280;53694;49.784;30.150;2024-01-15T01:28:20;98112.45;;;0.81;65.43
61474;BME280;53694;49.784;30.150;2024-01-15T01:29:22;98106.73;;;0.82;64.90
61474;BME280;53694;49.784;30.150;2024-01-15T01:30:23;98105.25;;;0.72;65.00
61474;BME280;53694;49.784;30.150;2024-01-15T01:31:25;98105.29;;;0.52;65.35
61474;BME280;53694;49.784;30.150;2024-01-15T01:32:27;98109.92;;;0.30;65.87
61474;BME280;53694;49.784;30.150;2024-01-15T01:33:28;98104.70;;;0.04;66.50
61474;BME280;53694;49.784;30.150;2024-01-15T01:34:32;98106.48;;;-0.21;67.21
61474;BME280;53694;49.784;30.150;2024-01-15T01:35:33;98109.79;;;-0.45;68.04
61474;BME280;53694;49.784;30.150;2024-01-15T01:36:35;98108.16;;;-0.67;68.78
61474;BME280;53694;49.784;30.150;2024-01-15T01:37:36;98106.95;;;-0.87;69.38
61474;BME280;53694;49.784;30.150;2024-01-15T01:38:39;98107.81;;;-1.04;70.08
61474;BME280;53694;49.784;30.150;2024-01-15T01:39:42;98109.44;;;-1.20;70.56
61474;BME280;53694;49.784;30.150;2024-01-15T01:40:43;98113.89;;;-1.33;71.12
61474;BME280;53694;49.784;30.150;2024-01-15T01:41:45;98117.55;;;-1.37;71.42
61474;BME280;53694;49.784;30.150;2024-01-15T01:42:47;98118.80;;;-1.26;71.42
61474;BME280;53694;49.784;30.150;2024-01-15T01:43:48;98117.47;;;-1.03;71.09
61474;BME280;53694;49.784;30.150;2024-01-15T01:44:50;98106.09;;;-0.70;70.30
61474;BME280;53694;49.784;30.150;2024-01-15T01:45:52;98101.16;;;-0.38;69.28
61474;BME280;53694;49.784;30.150;2024-01-15T01:46:54;98102.41;;;-0.06;68.35
61474;BME280;53694;49.784;30.150;2024-01-15T01:47:55;98105.52;;;0.26;67.10
61474;BME280;53694;49.784;30.150;2024-01-15T01:48:58;98102.77;;;0.46;66.29
61474;BME280;53694;49.784;30.150;2024-01-15T01:49:59;98104.60;;;0.55;65.79
61474;BME280;53694;49.784;30.150;2024-01-15T01:51:03;98103.69;;;0.50;65.24
61474;BME280;53694;49.784;30.150;2024-01-15T01:52:05;98106.23;;;0.35;65.44
61474;BME280;53694;49.784;30.150;2024-01-15T01:53:07;98105.76;;;0.12;65.72
61474;BME280;53694;49.784;30.150;2024-01-15T01:54:10;98108.31;;;-0.13;66.28
61474;BME280;53694;49.784;30.150;2024-01-15T01:55:12;98104.34;;;-0.36;66.99
61474;BME280;53694;49.784;30.150;2024-01-15T01:56:15;98103.51;;;-0.58;67.73
61474;BME280;53694;49.784;30.150;2024-01-15T01:57:17;98103.59;;;-0.75;68.38
61474;BME280;53694;49.784;30.150;2024-01-15T01:58:20;98114.44;;;-0.92;69.09
61474;BME280;53694;49.784;30.150;2024-01-15T01:59:22;98106.08;;;-1.08;69.75
61474;BME280;53694;49.784;30.150;2024-01-15T02:00:24;98125.14;;;-1.22;70.41
61474;BME280;53694;49.784;30.150;2024-01-15T02:01:26;98110.75;;;-1.35;70.80
61474;BME280;53694;49.784;30.150;2024-01-15T02:02:28;98120.41;;;-1.42;71.29
61474;BME280;53694;49.784;30.150;2024-01-15T02:03:30;98113.45;;;-1.43;71.58
61474;BME280;53694;49.784;30.150;2024-01-15T02:04:32;98116.75;;;-1.29;71.54
61474;BME280;53694;49.784;30.150;2024-01-15T02:05:35;98104.14;;;-0.99;71.21
61474;BME280;53694;49.784;30.150;2024-01-15T02:06:37;98117.97;;;-0.62;70.20
61474;BME280;53694;49.784;30.150;2024-01-15T02:07:39;98126.32;;;-0.26;68.96
61474;BME280;53694;49.784;30.150;2024-01-15T02:08:43;98129.27;;;0.11;67.68
61474;BME280;53694;49.784;30.150;2024-01-15T02:09:44;98132.03;;;0.44;66.03
61474;BME280;53694;49.784;30.150;2024-01-15T02:10:46;98135.05;;;0.64;65.29
61474;BME280;53694;49.784;30.150;2024-01-15T02:11:48;98119.55;;;0.73;65.22
61474;BME280;53694;49.784;30.150;2024-01-15T02:12:49;98117.38;;;0.66;64.52
61474;BME280;53694;49.784;30.150;2024-01-15T02:13:51;98118.80;;;0.52;64.95
61474;BME280;53694;49.784;30.150;2024-01-15T02:14:53;98118.47;;;0.32;65.41
61474;BME280;53694;49.784;30.150;2024-01-15T02:15:55;98121.95;;;0.12;65.87
61474;BME280;53694;49.784;30.150;2024-01-15T02:16:56;98116.88;;;-0.11;66.53
61474;BME280;53694;49.784;30.150;2024-01-15T02:18:07;98126.06;;;-0.33;67.23
61474;BME280;53694;49.784;30.150;2024-01-15T02:19:06;98126.80;;;-0.53;67.93
61474;BME280;53694;49.784;30.150;2024-01-15T02:20:08;98108.20;;;-0.76;68.77
61474;BME280;53694;49.784;30.150;2024-01-15T02:21:10;98127.58;;;-0.91;69.35
61474;BME280;53694;49.784;30.150;2024-01-15T02:22:12;98119.70;;;-1.05;69.91
61474;BME280;53694;49.784;30.150;2024-01-15T02:23:15;98114.97;;;-1.16;70.33
61474;BME280;53694;49.784;30.150;2024-01-15T02:24:17;98109.94;;;-1.27;70.76
61474;BME280;53694;49.784;30.150;2024-01-15T02:25:20;98131.96;;;-1.33;71.27
61474;BME280;53694;49.784;30.150;2024-01-15T02:26:22;98116.92;;;-1.34;71.62
61474;BME280;53694;49.784;30.150;2024-01-15T02:27:25;98111.03;;;-1.19;71.46
61474;BME280;53694;49.784;30.150;2024-01-15T02:28:26;98129.64;;;-0.88;71.01
61474;BME280;53694;49.784;30.150;2024-01-15T02:29:28;98107.28;;;-0.50;69.95
61474;BME280;53694;49.784;30.150;2024-01-15T02:30:30;98104.96;;;-0.10;68.75
61474;BME280;53694;49.784;30.150;2024-01-15T02:31:32;98109.00;;;0.26;67.27
61474;BME280;53694;49.784;30.150;2024-01-15T02:32:34;98107.44;;;0.58;66.20
61474;BME280;53694;49.784;30.150;2024-01-15T02:33:35;98104.34;;;0.68;65.20
61474;BME280;53694;49.784;30.150;2024-01-15T02:34:37;98102.73;;;0.67;65.01
61474;BME280;53694;49.784;30.150;2024-01-15T02:35:38;98096.97;;;0.57;64.88
61474;BME280;53694;49.784;30.150;2024-01-15T02:36:40;98105.44;;;0.34;64.97
61474;BME280;53694;49.784;30.150;2024-01-15T02:37:41;98097.66;;;0.12;65.51
61474;BME280;53694;49.784;30.150;2024-01-15T02:38:43;98100.21;;;-0.13;66.21
61474;BME280;53694;49.784;30.150;2024-01-15T02:39:44;98111.31;;;-0.35;66.95
61474;BME280;53694;49.784;30.150;2024-01-15T02:40:46;98106.66;;;-0.56;67.61
61474;BME280;53694;49.784;30.150;2024-01-15T02:41:48;98114.38;;;-0.75;68.33
61474;BME280;53694;49.784;30.150;2024-01-15T02:42:50;98113.32;;;-0.91;68.81
61474;BME280;53694;49.784;30.150;2024-01-15T02:43:51;98101.96;;;-1.06;69.46
61474;BME280;53694;49.784;30.150;2024-01-15T02:44:53;98105.65;;;-1.19;70.05
61474;BME280;53694;49.784;30.150;2024-01-15T02:45:54;98111.84;;;-1.27;70.46
61474;BME280;53694;49.784;30.150;2024-01-15T02:46:56;98104.23;;;-1.34;70.78
61474;BME280;53694;49.784;30.150;2024-01-15T02:47:58;98118.98;;;-1.31;71.04
61474;BME280;53694;49.784;30.150;2024-01-15T02:48:59;98128.11;;;-1.15;70.83
61474;BME280;53694;49.784;30.150;2024-01-15T02:50:01;98113.77;;;-0.89;70.26
61474;BME280;53694;49.784;30.150;2024-01-15T02:51:03;98117.92;;;-0.54;69.41
61474;BME280;53694;49.784;30.150;2024-01-15T02:52:05;98121.35;;;-0.15;68.06
61474;BME280;53694;49.784;30.150;2024-01-15T02:53:06;98111.09;;;0.20;66.62
61474;BME280;53694;49.784;30.150;2024-01-15T02:54:08;98125.50;;;0.45;65.43
61474;BME280;53694;49.784;30.150;2024-01-15T02:55:09;98107.98;;;0.52;64.78
61474;BME280;53694;49.784;30.150;2024-01-15T02:56:13;98106.59;;;0.45;64.75
61474;BME280;53694;49.784;30.150;2024-01-15T02:57:15;98115.33;;;0.30;64.96
61474;BME280;53694;49.784;30.150;2024-01-15T02:58:16;98103.84;;;0.12;65.57
61474;BME280;53694;49.784;30.150;2024-01-15T02:59:18;98103.98;;;-0.05;65.92
61474;BME280;53694;49.784;30.150;2024-01-15T03:00:21;98114.44;;;-0.24;66.27
61474;BME280;53694;49.784;30.150;2024-01-15T03:01:22;98116.30;;;-0.46;66.87
61474;BME280;53694;49.784;30.150;2024-01-15T03:02:24;98103.70;;;-0.63;67.64
61474;BME280;53694;49.784;30.150;2024-01-15T03:03:25;98106.77;;;-0.82;68.18
61474;BME280;53694;49.784;30.150;2024-01-15T03:04:27;98103.51;;;-0.96;68.74
61474;BME280;53694;49.784;30.150;2024-01-15T03:05:28;98111.80;;;-1.10;69.24
61474;BME280;53694;49.784;30.150;2024-01-15T03:06:30;98097.88;;;-1.20;69.73
61474;BME280;53694;49.784;30.150;2024-01-15T03:07:32;98097.89;;;-1.29;70.13
61474;BME280;53694;49.784;30.150;2024-01-15T03:08:33;98108.69;;;-1.38;70.43
61474;BME280;53694;49.784;30.150;2024-01-15T03:09:35;98109.19;;;-1.44;70.73
61474;BME280;53694;49.784;30.150;2024-01-15T03:10:37;98113.13;;;-1.42;70.90
61474;BME280;53694;49.784;30.150;2024-01-15T03:11:39;98112.30;;;-1.25;70.66
61474;BME280;53694;49.784;30.150;2024-01-15T03:12:41;98103.02;;;-0.98;70.18
61474;BME280;53694;49.784;30.150;2024-01-15T03:13:42;98106.84;;;-0.61;69.12
61474;BME280;53694;49.784;30.150;2024-01-15T03:14:44;98110.61;;;-0.23;67.80
61474;BME280;53694;49.784;30.150;2024-01-15T03:15:46;98113.86;;;0.12;66.37
61474;BME280;53694;49.784;30.150;2024-01-15T03:16:47;98107.94;;;0.39;65.36
61474;BME280;53694;49.784;30.150;2024-01-15T03:17:49;98109.43;;;0.49;64.54
61474;BME280;53694;49.784;30.150;2024-01-15T03:18:50;98112.00;;;0.45;63.90
61474;BME280;53694;49.784;30.150;2024-01-15T03:19:52;98109.24;;;0.33;64.33
61474;BME280;53694;49.784;30.150;2024-01-15T03:20:53;98110.06;;;0.13;64.49
61474;BME280;53694;49.784;30.150;2024-01-15T03:21:55;98103.84;;;-0.09;64.96
61474;BME280;53694;49.784;30.150;2024-01-15T03:22:56;98111.12;;;-0.30;65.61
61474;BME280;53694;49.784;30.150;2024-01-15T03:23:58;98110.77;;;-0.49;66.32
61474;BME280;53694;49.784;30.150;2024-01-15T03:24:59;98124.64;;;-0.68;66.78
61474;BME280;53694;49.784;30.150;2024-01-15T03:26:01;98118.86;;;-0.88;67.29
61474;BME280;53694;49.784;30.150;2024-01-15T03:27:03;98117.47;;;-1.03;67.92
61474;BME280;53694;49.784;30.150;2024-01-15T03:28:05;98117.67;;;-1.16;68.51
61474;BME280;53694;49.784;30.150;2024-01-15T03:29:07;98121.02;;;-1.28;68.95
61474;BME280;53694;49.784;30.150;2024-01-15T03:30:09;98114.86;;;-1.37;69.29
61474;BME280;53694;49.784;30.150;2024-01-15T03:31:11;98119.80;;;-1.48;69.82
61474;BME280;53694;49.784;30.150;2024-01-15T03:32:12;98129.13;;;-1.54;70.12
61474;BME280;53694;49.784;30.150;2024-01-15T03:33:15;98136.59;;;-1.60;70.37
61474;BME280;53694;49.784;30.150;2024-01-15T03:34:16;98122.17;;;-1.64;70.52
61474;BME280;53694;49.784;30.150;2024-01-15T03:35:18;98115.51;;;-1.58;70.60
61474;BME280;53694;49.784;30.150;2024-01-15T03:36:20;98119.45;;;-1.38;70.32
61474;BME280;53694;49.784;30.150;2024-01-15T03:37:22;98112.25;;;-1.08;69.36
61474;BME280;53694;49.784;30.150;2024-01-15T03:38:23;98123.06;;;-0.69;68.47
61474;BME280;53694;49.784;30.150;2024-01-15T03:39:25;98127.78;;;-0.28;67.14
61474;BME280;53694;49.784;30.150;2024-01-15T03:40:27;98113.14;;;0.03;65.97
61474;BME280;53694;49.784;30.150;2024-01-15T03:41:28;98121.45;;;0.18;65.08
61474;BME280;53694;49.784;30.150;2024-01-15T03:42:30;98116.49;;;0.20;64.56
61474;BME280;53694;49.784;30.150;2024-01-15T03:43:31;98117.69;;;0.11;64.44
61474;BME280;53694;49.784;30.150;2024-01-15T03:44:33;98117.81;;;-0.07;64.33
61474;BME280;53694;49.784;30.150;2024-01-15T03:45:35;98108.70;;;-0.23;64.76
61474;BME280;53694;49.784;30.150;2024-01-15T03:46:36;98114.98;;;-0.40;65.34
61474;BME280;53694;49.784;30.150;2024-01-15T03:47:38;98115.08;;;-0.57;65.77
61474;BME280;53694;49.784;30.150;2024-01-15T03:48:39;98115.30;;;-0.71;66.26
61474;BME280;53694;49.784;30.150;2024-01-15T03:49:41;98117.41;;;-0.85;66.60
61474;BME280;53694;49.784;30.150;2024-01-15T03:50:42;98114.14;;;-0.99;67.08
61474;BME280;53694;49.784;30.150;2024-01-15T03:51:44;98113.70;;;-1.10;67.53
61474;BME280;53694;49.784;30.150;2024-01-15T03:52:46;98108.64;;;-1.20;67.99
61474;BME280;53694;49.784;30.150;2024-01-15T03:53:47;98117.53;;;-1.29;68.41
61474;BME280;53694;49.784;30.150;2024-01-15T03:54:49;98118.03;;;-1.35;68.63
61474;BME280;53694;49.784;30.150;2024-01-15T03:55:50;98121.98;;;-1.41;68.85
61474;BME280;53694;49.784;30.150;2024-01-15T03:56:52;98137.53;;;-1.47;69.17
61474;BME280;53694;49.784;30.150;2024-01-15T03:57:53;98118.06;;;-1.53;69.28
61474;BME280;53694;49.784;30.150;2024-01-15T03:58:55;98127.88;;;-1.57;69.52
61474;BME280;53694;49.784;30.150;2024-01-15T03:59:58;98131.20;;;-1.60;69.80
61474;BME280;53694;49.784;30.150;2024-01-15T04:01:00;98127.56;;;-1.64;69.84
61474;BME280;53694;49.784;30.150;2024-01-15T04:02:02;98133.57;;;-1.67;70.02
61474;BME280;53694;49.784;30.150;2024-01-15T04:03:03;98129.63;;;-1.69;70.12
61474;BME280;53694;49.784;30.150;2024-01-15T04:04:05;98133.73;;;-1.72;70.32
61474;BME280;53694;49.784;30.150;2024-01-15T04:05:06;98140.53;;;-1.66;70.34
61474;BME280;53694;49.784;30.150;2024-01-15T04:06:08;98135.30;;;-1.45;70.08
61474;BME280;53694;49.784;30.150;2024-01-15T04:07:10;98130.66;;;-1.10;69.42
61474;BME280;53694;49.784;30.150;2024-01-15T04:08:11;98123.84;;;-0.69;68.37
61474;BME280;53694;49.784;30.150;2024-01-15T04:09:13;98125.42;;;-0.30;66.53
61474;BME280;53694;49.784;30.150;2024-01-15T04:10:15;98127.42;;;0.03;65.33
61474;BME280;53694;49.784;30.150;2024-01-15T04:11:17;98126.98;;;0.22;64.27
61474;BME280;53694;49.784;30.150;2024-01-15T04:12:19;98133.61;;;0.24;63.68
61474;BME280;53694;49.784;30.150;2024-01-15T04:13:20;98127.83;;;0.14;63.58
61474;BME280;53694;49.784;30.150;2024-01-15T04:14:22;98128.89;;;0.01;63.61
61474;BME280;53694;49.784;30.150;2024-01-15T04:15:23;98143.92;;;-0.19;63.97
61474;BME280;53694;49.784;30.150;2024-01-15T04:16:25;98135.14;;;-0.37;64.46
61474;BME280;53694;49.784;30.150;2024-01-15T04:17:27;98135.86;;;-0.58;64.95
61474;BME280;53694;49.784;30.150;2024-01-15T04:18:29;98130.55;;;-0.75;65.72
61474;BME280;53694;49.784;30.150;2024-01-15T04:19:30;98134.55;;;-0.90;66.13
61474;BME280;53694;49.784;30.150;2024-01-15T04:20:32;98125.55;;;-1.03;66.69
61474;BME280;53694;49.784;30.150;2024-01-15T04:21:33;98125.12;;;-1.13;67.08
61474;BME280;53694;49.784;30.150;2024-01-15T04:22:35;98121.17;;;-1.24;67.43
61474;BME280;53694;49.784;30.150;2024-01-15T04:23:37;98123.88;;;-1.33;67.72
61474;BME280;53694;49.784;30.150;2024-01-15T04:24:38;98130.06;;;-1.41;67.97
61474;BME280;53694;49.784;30.150;2024-01-15T04:25:40;98128.17;;;-1.49;68.26
61474;BME280;53694;49.784;30.150;2024-01-15T04:26:42;98127.88;;;-1.57;68.62
61474;BME280;53694;49.784;30.150;2024-01-15T04:27:43;98127.23;;;-1.62;68.74
61474;BME280;53694;49.784;30.150;2024-01-15T04:28:45;98120.11;;;-1.67;68.98
61474;BME280;53694;49.784;30.150;2024-01-15T04:29:46;98125.03;;;-1.69;69.11
61474;BME280;53694;49.784;30.150;2024-01-15T04:30:48;98121.06;;;-1.71;69.29
61474;BME280;53694;49.784;30.150;2024-01-15T04:31:49;98121.69;;;-1.74;69.43
61474;BME280;53694;49.784;30.150;2024-01-15T04:32:51;98118.54;;;-1.77;69.59
61474;BME280;53694;49.784;30.150;2024-01-15T04:33:52;98116.47;;;-1.80;69.65
61474;BME280;53694;49.784;30.150;2024-01-15T04:34:55;98123.76;;;-1.80;69.75
61474;BME280;53694;49.784;30.150;2024-01-15T04:36:01;98128.68;;;-1.82;69.76
61474;BME280;53694;49.784;30.150;2024-01-15T04:37:02;98112.05;;;-1.84;69.75
61474;BME280;53694;49.784;30.150;2024-01-15T04:38:03;98139.74;;;-1.84;69.69
61474;BME280;53694;49.784;30.150;2024-01-15T04:39:05;98114.27;;;-1.86;69.79
61474;BME280;53694;49.784;30.150;2024-01-15T04:40:07;98113.48;;;-1.87;69.91
61474;BME280;53694;49.784;30.150;2024-01-15T04:41:16;98125.83;;;-1.86;70.00
61474;BME280;53694;49.784;30.150;2024-01-15T04:42:17;98126.13;;;-1.87;69.86
61474;BME280;53694;49.784;30.150;2024-01-15T04:43:19;98118.05;;;-1.87;69.91
61474;BME280;53694;49.784;30.150;2024-01-15T04:44:20;98111.88;;;-1.88;69.84
61474;BME280;53694;49.784;30.150;2024-01-15T04:45:22;98129.47;;;-1.90;69.99
61474;BME280;53694;49.784;30.150;2024-01-15T04:46:24;98124.08;;;-1.90;69.95
61474;BME280;53694;49.784;30.150;2024-01-15T04:47:25;98125.98;;;-1.91;69.92
61474;BME280;53694;49.784;30.150;2024-01-15T04:48:27;98121.06;;;-1.89;69.82
61474;BME280;53694;49.784;30.150;2024-01-15T04:49:28;98124.88;;;-1.90;69.91
61474;BME280;53694;49.784;30.150;2024-01-15T04:50:31;98122.97;;;-1.89;69.94
61474;BME280;53694;49.784;30.150;2024-01-15T04:51:34;98119.49;;;-1.90;70.04
61474;BME280;53694;49.784;30.150;2024-01-15T04:52:35;98128.67;;;-1.91;70.16
61474;BME280;53694;49.784;30.150;2024-01-15T04:53:37;98128.97;;;-1.92;70.14
61474;BME280;53694;49.784;30.150;2024-01-15T04:54:38;98119.00;;;-1.83;70.09
61474;BME280;53694;49.784;30.150;2024-01-15T04:55:40;98113.14;;;-1.59;69.54
61474;BME280;53694;49.784;30.150;2024-01-15T04:56:42;98118.80;;;-1.26;68.77
61474;BME280;53694;49.784;30.150;2024-01-15T04:57:43;98112.50;;;-0.83;67.39
61474;BME280;53694;49.784;30.150;2024-01-15T04:58:45;98109.50;;;-0.52;65.71
61474;BME280;53694;49.784;30.150;2024-01-15T04:59:46;98123.67;;;-0.34;64.75
61474;BME280;53694;49.784;30.150;2024-01-15T05:00:50;98116.99;;;-0.28;64.54
61474;BME280;53694;49.784;30.150;2024-01-15T05:01:51;98105.27;;;-0.32;64.18
61474;BME280;53694;49.784;30.150;2024-01-15T05:02:53;98116.56;;;-0.39;64.19
61474;BME280;53694;49.784;30.150;2024-01-15T05:03:54;98116.80;;;-0.53;64.29
61474;BME280;53694;49.784;30.150;2024-01-15T05:04:55;98115.91;;;-0.65;64.46
61474;BME280;53694;49.784;30.150;2024-01-15T05:05:57;98128.48;;;-0.78;64.82
61474;BME280;53694;49.784;30.150;2024-01-15T05:06:58;98126.34;;;-0.93;65.18
61474;BME280;53694;49.784;30.150;2024-01-15T05:08:00;98136.50;;;-1.08;65.67
61474;BME280;53694;49.784;30.150;2024-01-15T05:09:02;98132.59;;;-1.19;66.17
61474;BME280;53694;49.784;30.150;2024-01-15T05:10:04;98160.33;;;-1.27;66.54
61474;BME280;53694;49.784;30.150;2024-01-15T05:11:06;98124.52;;;-1.36;66.88
61474;BME280;53694;49.784;30.150;2024-01-15T05:12:07;98139.27;;;-1.42;67.17
61474;BME280;53694;49.784;30.150;2024-01-15T05:13:09;98135.16;;;-1.48;67.44
61474;BME280;53694;49.784;30.150;2024-01-15T05:14:10;98142.59;;;-1.54;67.73
61474;BME280;53694;49.784;30.150;2024-01-15T05:15:12;98132.78;;;-1.59;67.86
61474;BME280;53694;49.784;30.150;2024-01-15T05:16:14;98131.83;;;-1.63;68.07
61474;BME280;53694;49.784;30.150;2024-01-15T05:17:15;98125.50;;;-1.67;68.38
61474;BME280;53694;49.784;30.150;2024-01-15T05:18:17;98126.94;;;-1.69;68.63
61474;BME280;53694;49.784;30.150;2024-01-15T05:19:18;98143.39;;;-1.71;68.75
61474;BME280;53694;49.784;30.150;2024-01-15T05:20:20;98132.95;;;-1.72;68.77
61474;BME280;53694;49.784;30.150;2024-01-15T05:21:22;98147.81;;;-1.75;68.72
61474;BME280;53694;49.784;30.150;2024-01-15T05:22:23;98119.33;;;-1.76;68.62
61474;BME280;53694;49.784;30.150;2024-01-15T05:23:25;98129.63;;;-1.78;68.82
61474;BME280;53694;49.784;30.150;2024-01-15T05:24:26;98131.50;;;-1.79;68.91